Orbital elements of BREEZE-M R/B
| Launched | 25 December 2013 |
| Flight ended | – |
| Launch site | Tyuratam Missile and Space Center, Kazakhstan (Also known as Baikonur Cosmodrome) |
| Owner | Commonwealth of Independent States (former USSR) |
| NORAD ID | 39488 |
| Date fetched |
Epoch osculation |
Inc. [°] |
Ecc. | RA asc node [hr] |
Arg Peri. [°] |
Mean anom [°] |
Mean motion [rev/day] |
Abs. mag |
| Date fetched |
Epoch osculation |
Inc. [°] |
Ecc. | RA asc node [hr] |
Arg Peri. [°] |
Mean anom [°] |
Mean motion [rev/day] |
Abs. mag |
| 2026 May 04 17:57 | 2026 Apr 29 23:56:04 | 10.4715 | 0.05617 | 3.9683 | 182.0507 | 177.6298 | 0.89566 | – |
| 2026 May 03 17:57 | 2026 Apr 29 23:56:04 | 10.4715 | 0.05617 | 3.9683 | 182.0507 | 177.6298 | 0.89566 | – |
| 2026 May 02 17:57 | 2026 Apr 29 23:56:04 | 10.4715 | 0.05617 | 3.9683 | 182.0507 | 177.6298 | 0.89566 | – |
| 2026 May 01 17:56 | 2026 Apr 29 23:56:04 | 10.4715 | 0.05617 | 3.9683 | 182.0507 | 177.6298 | 0.89566 | – |
| 2026 Apr 30 17:56 | 2026 Apr 29 23:56:04 | 10.4715 | 0.05617 | 3.9683 | 182.0507 | 177.6298 | 0.89566 | – |
| 2026 Apr 29 17:57 | 2026 Apr 22 04:22:19 | 10.4504 | 0.05616 | 3.9728 | 181.8901 | 177.6298 | 0.89566 | – |
| 2026 Apr 28 17:56 | 2026 Apr 22 04:22:19 | 10.4504 | 0.05616 | 3.9728 | 181.8901 | 177.6298 | 0.89566 | – |
| 2026 Apr 27 17:58 | 2026 Apr 22 04:22:19 | 10.4504 | 0.05616 | 3.9728 | 181.8901 | 177.6298 | 0.89566 | – |
| 2026 Apr 26 17:58 | 2026 Apr 22 04:22:19 | 10.4504 | 0.05616 | 3.9728 | 181.8901 | 177.6298 | 0.89566 | – |
| 2026 Apr 25 17:58 | 2026 Apr 22 04:22:19 | 10.4504 | 0.05616 | 3.9728 | 181.8901 | 177.6298 | 0.89566 | – |
| 2026 Apr 24 17:59 | 2026 Apr 22 04:22:19 | 10.4504 | 0.05616 | 3.9728 | 181.8901 | 177.6298 | 0.89566 | – |
| 2026 Apr 23 17:57 | 2026 Apr 18 19:59:21 | 10.4416 | 0.05615 | 3.9747 | 181.8247 | 177.6298 | 0.89566 | – |
| 2026 Apr 22 17:57 | 2026 Apr 18 19:59:21 | 10.4416 | 0.05615 | 3.9747 | 181.8247 | 177.6298 | 0.89566 | – |
| 2026 Apr 21 17:57 | 2026 Apr 18 19:59:21 | 10.4416 | 0.05615 | 3.9747 | 181.8247 | 177.6298 | 0.89566 | – |
| 2026 Apr 20 17:57 | 2026 Apr 18 19:59:21 | 10.4416 | 0.05615 | 3.9747 | 181.8247 | 177.6298 | 0.89566 | – |
| 2026 Apr 19 17:58 | 2026 Apr 18 19:59:21 | 10.4416 | 0.05615 | 3.9747 | 181.8247 | 177.6298 | 0.89566 | – |
| 2026 Apr 18 17:56 | 2026 Apr 12 03:13:32 | 10.4237 | 0.05617 | 3.9785 | 181.6940 | 177.6298 | 0.89566 | – |
| 2026 Apr 16 17:57 | 2026 Apr 12 03:13:32 | 10.4237 | 0.05617 | 3.9785 | 181.6940 | 177.6298 | 0.89566 | – |
| 2026 Apr 14 17:57 | 2026 Apr 12 03:13:32 | 10.4237 | 0.05617 | 3.9785 | 181.6940 | 177.6298 | 0.89566 | – |
| 2026 Apr 13 17:57 | 2026 Apr 12 03:13:32 | 10.4237 | 0.05617 | 3.9785 | 181.6940 | 177.6298 | 0.89566 | – |
| 2026 Apr 12 17:57 | 2026 Apr 07 16:02:38 | 10.4113 | 0.05618 | 3.9810 | 181.5998 | 177.6298 | 0.89566 | – |
| 2026 Apr 11 17:57 | 2026 Apr 07 16:02:38 | 10.4113 | 0.05618 | 3.9810 | 181.5998 | 177.6298 | 0.89566 | – |
| 2026 Apr 10 17:58 | 2026 Apr 07 16:02:38 | 10.4113 | 0.05618 | 3.9810 | 181.5998 | 177.6298 | 0.89566 | – |
| 2026 Apr 09 18:01 | 2026 Apr 07 16:02:38 | 10.4113 | 0.05618 | 3.9810 | 181.5998 | 177.6298 | 0.89566 | – |
| 2026 Apr 08 17:57 | 2026 Apr 07 16:02:38 | 10.4113 | 0.05618 | 3.9810 | 181.5998 | 177.6298 | 0.89566 | – |
| 2026 Apr 07 17:57 | 2026 Apr 02 02:04:25 | 10.3955 | 0.05618 | 3.9842 | 181.4751 | 177.6298 | 0.89566 | – |